createdAt,value
2017-08-07T00:00:02.505Z,5.23
2017-08-07T00:02:31.403Z,4.97
2017-08-07T00:05:00.269Z,4.63
2017-08-07T00:07:29.158Z,4.67
2017-08-07T00:09:58.025Z,5.80
2017-08-07T00:12:26.919Z,4.80
2017-08-07T00:14:55.798Z,4.67
2017-08-07T00:17:24.685Z,4.60
2017-08-07T00:19:53.553Z,5.30
2017-08-07T00:22:22.450Z,4.77
2017-08-07T00:24:51.340Z,4.30
2017-08-07T00:27:20.213Z,5.37
2017-08-07T00:29:49.098Z,4.50
2017-08-07T00:32:17.975Z,4.60
2017-08-07T00:34:46.881Z,5.30
2017-08-07T00:37:15.755Z,6.50
2017-08-07T00:39:44.656Z,5.10
2017-08-07T00:42:13.531Z,8.93
2017-08-07T00:44:42.412Z,5.37
2017-08-07T00:47:11.286Z,6.40
2017-08-07T00:49:40.173Z,4.80
2017-08-07T00:52:09.063Z,6.27
2017-08-07T00:54:37.967Z,5.77
2017-08-07T00:57:06.833Z,5.10
2017-08-07T00:59:35.736Z,7.30
2017-08-07T01:02:04.628Z,5.27
2017-08-07T01:04:33.515Z,14.70
2017-08-07T01:07:02.400Z,4.03
2017-08-07T01:09:31.287Z,4.67
2017-08-07T01:12:00.172Z,6.40
2017-08-07T01:14:29.067Z,5.57
2017-08-07T01:16:57.951Z,7.07
2017-08-07T01:19:26.844Z,5.40
2017-08-07T01:21:55.721Z,5.77
2017-08-07T01:24:24.615Z,5.60
2017-08-07T01:26:53.497Z,6.07
2017-08-07T01:29:22.386Z,4.87
2017-08-07T01:31:51.279Z,8.33
2017-08-07T01:34:20.154Z,6.13
2017-08-07T01:36:49.052Z,4.43
2017-08-07T01:39:17.927Z,4.97
2017-08-07T01:41:46.822Z,5.17
2017-08-07T01:44:15.695Z,4.90
2017-08-07T01:46:44.590Z,5.07
2017-08-07T01:49:13.479Z,5.50
2017-08-07T01:51:42.372Z,4.60
2017-08-07T01:54:11.257Z,5.30
2017-08-07T01:56:40.141Z,5.30
2017-08-07T01:59:09.008Z,5.57
2017-08-07T02:01:37.909Z,5.93
2017-08-07T02:04:06.791Z,6.20
2017-08-07T02:06:35.681Z,5.83
2017-08-07T02:09:04.542Z,4.93
2017-08-07T02:11:33.439Z,4.43
2017-08-07T02:14:02.301Z,5.50
2017-08-07T02:16:31.196Z,4.97
2017-08-07T02:19:00.069Z,5.30
2017-08-07T02:21:28.970Z,4.40
2017-08-07T02:23:57.842Z,4.30
2017-08-07T02:26:26.738Z,5.10
2017-08-07T02:28:55.601Z,4.90
2017-08-07T02:31:24.486Z,5.53
2017-08-07T02:33:53.359Z,5.20
2017-08-07T02:36:22.253Z,10.60
2017-08-07T02:38:51.118Z,4.90
2017-08-07T02:41:20.020Z,4.70
2017-08-07T02:43:48.899Z,6.30
2017-08-07T02:46:17.787Z,5.83
2017-08-07T02:48:46.683Z,5.10
2017-08-07T02:51:15.572Z,4.80
2017-08-07T02:53:44.453Z,5.60
2017-08-07T02:56:13.322Z,6.07
2017-08-07T02:58:42.206Z,6.07
2017-08-07T03:01:11.082Z,5.73
2017-08-07T03:03:39.971Z,4.90
2017-08-07T03:06:08.843Z,4.93
2017-08-07T03:08:37.744Z,5.70
2017-08-07T03:11:06.641Z,4.90
2017-08-07T03:13:35.558Z,5.33
2017-08-07T03:16:04.430Z,5.43
2017-08-07T03:18:33.322Z,5.67
2017-08-07T03:21:02.193Z,5.17
2017-08-07T03:23:31.057Z,5.70
2017-08-07T03:25:59.952Z,6.23
2017-08-07T03:28:28.835Z,8.17
2017-08-07T03:30:57.735Z,6.00
2017-08-07T03:33:26.606Z,6.33
2017-08-07T03:35:55.505Z,6.03
2017-08-07T03:38:24.384Z,5.50
2017-08-07T03:40:53.270Z,5.67
2017-08-07T03:43:22.148Z,5.23
2017-08-07T03:45:51.057Z,5.57
2017-08-07T03:48:19.932Z,6.53
2017-08-07T03:50:48.827Z,6.63
2017-08-07T03:53:17.690Z,5.87
2017-08-07T03:55:46.587Z,7.03
2017-08-07T03:58:15.471Z,6.70
2017-08-07T04:00:44.376Z,7.23
2017-08-07T04:03:13.250Z,6.20
2017-08-07T04:05:42.142Z,6.30
2017-08-07T04:08:11.010Z,6.07
2017-08-07T04:10:39.908Z,6.03
2017-08-07T04:13:08.781Z,6.00
2017-08-07T04:15:37.692Z,5.63
2017-08-07T04:18:06.576Z,6.30
2017-08-07T04:20:35.465Z,5.53
2017-08-07T04:23:04.382Z,5.30
2017-08-07T04:25:33.280Z,4.80
2017-08-07T04:28:02.165Z,5.77
2017-08-07T04:30:31.064Z,4.70
2017-08-07T04:32:59.925Z,4.83
2017-08-07T04:35:28.823Z,5.50
2017-08-07T04:37:57.690Z,6.17
2017-08-07T04:40:26.573Z,5.80
2017-08-07T04:42:55.462Z,5.57
2017-08-07T04:45:24.353Z,6.20
2017-08-07T04:47:53.256Z,5.37
2017-08-07T04:50:22.127Z,6.87
2017-08-07T04:52:51.014Z,5.70
2017-08-07T04:55:19.902Z,6.10
2017-08-07T04:57:48.807Z,6.30
2017-08-07T05:00:17.679Z,8.07
2017-08-07T05:02:46.592Z,9.00
2017-08-07T05:05:15.457Z,8.27
2017-08-07T05:07:44.333Z,9.03
2017-08-07T05:10:13.215Z,7.53
2017-08-07T05:12:42.104Z,8.53
2017-08-07T05:15:10.971Z,8.07
2017-08-07T05:17:39.874Z,7.33
2017-08-07T05:20:08.741Z,6.77
2017-08-07T05:22:37.645Z,9.43
2017-08-07T05:25:06.528Z,7.30
2017-08-07T05:27:35.397Z,6.77
2017-08-07T05:30:04.291Z,7.67
2017-08-07T05:32:33.170Z,6.77
2017-08-07T05:35:02.068Z,7.80
2017-08-07T05:37:30.939Z,6.20
2017-08-07T05:39:59.828Z,7.63
2017-08-07T05:42:28.697Z,8.13
2017-08-07T05:44:57.591Z,8.37
2017-08-07T05:47:26.464Z,7.53
2017-08-07T05:49:55.372Z,7.77
2017-08-07T05:52:24.237Z,6.70
2017-08-07T05:54:53.123Z,7.50
2017-08-07T05:57:21.985Z,6.63
2017-08-07T05:59:50.884Z,7.60
2017-08-07T06:02:19.764Z,7.30
2017-08-07T06:04:48.656Z,6.00
2017-08-07T06:07:17.531Z,6.13
2017-08-07T06:09:46.426Z,6.47
2017-08-07T06:12:15.293Z,6.17
2017-08-07T06:14:44.216Z,5.53
2017-08-07T06:17:13.098Z,4.73
2017-08-07T06:19:41.982Z,6.80
2017-08-07T06:22:10.850Z,4.47
2017-08-07T06:24:39.753Z,4.20
2017-08-07T06:27:08.635Z,4.03
2017-08-07T06:29:37.521Z,7.10
2017-08-07T06:32:06.395Z,5.07
2017-08-07T06:34:35.286Z,8.17
2017-08-07T06:37:04.164Z,4.77
2017-08-07T06:39:33.061Z,3.87
2017-08-07T06:42:01.936Z,4.93
2017-08-07T06:44:30.840Z,5.03
2017-08-07T06:46:59.710Z,3.50
2017-08-07T06:49:28.612Z,3.87
2017-08-07T06:51:57.494Z,6.00
2017-08-07T06:54:26.435Z,4.30
2017-08-07T06:56:55.314Z,2.80
2017-08-07T06:59:24.203Z,2.83
2017-08-07T07:01:53.096Z,2.90
2017-08-07T07:04:21.983Z,3.27
2017-08-07T07:06:50.875Z,3.00
2017-08-07T07:09:19.759Z,2.13
2017-08-07T07:11:48.645Z,2.67
2017-08-07T07:14:17.540Z,3.80
2017-08-07T07:16:46.443Z,2.20
2017-08-07T07:19:15.317Z,2.40
2017-08-07T07:21:44.265Z,3.57
2017-08-07T07:24:13.139Z,4.17
2017-08-07T07:26:42.036Z,5.60
2017-08-07T07:29:10.924Z,2.23
2017-08-07T07:31:39.811Z,2.20
2017-08-07T07:34:08.678Z,2.97
2017-08-07T07:36:37.584Z,2.40
2017-08-07T07:39:06.458Z,2.80
2017-08-07T07:41:35.433Z,2.33
2017-08-07T07:44:04.318Z,2.03
2017-08-07T07:46:33.214Z,2.70
2017-08-07T07:49:02.100Z,3.40
2017-08-07T07:51:31.028Z,3.87
2017-08-07T07:53:59.917Z,3.30
2017-08-07T07:56:28.874Z,2.40
2017-08-07T07:58:57.770Z,4.30
2017-08-07T08:01:26.693Z,2.03
2017-08-07T08:03:55.606Z,3.17
2017-08-07T08:06:24.523Z,2.97
2017-08-07T08:08:53.394Z,2.60
2017-08-07T08:11:22.295Z,3.07
2017-08-07T08:13:51.173Z,2.90
2017-08-07T08:16:20.042Z,2.60
2017-08-07T08:18:48.981Z,2.40
2017-08-07T08:21:17.863Z,3.33
2017-08-07T08:23:46.754Z,2.30
2017-08-07T08:26:15.691Z,2.60
2017-08-07T08:28:44.589Z,2.60
2017-08-07T08:31:13.470Z,3.60
2017-08-07T08:33:42.367Z,2.00
2017-08-07T08:36:11.234Z,2.90
2017-08-07T08:38:40.126Z,2.03
2017-08-07T08:41:09.012Z,3.83
2017-08-07T08:43:37.923Z,3.57
2017-08-07T08:46:06.824Z,2.20
2017-08-07T08:48:35.719Z,2.43
2017-08-07T08:51:04.585Z,1.97
2017-08-07T08:53:33.492Z,2.10
2017-08-07T08:56:02.373Z,4.07
2017-08-07T08:58:31.280Z,1.70
2017-08-07T09:01:00.154Z,2.28
2017-08-07T09:03:29.055Z,1.58
2017-08-07T09:05:57.964Z,2.72
2017-08-07T09:08:26.873Z,2.05
2017-08-07T09:10:55.746Z,1.92
2017-08-07T09:13:24.624Z,2.08
2017-08-07T09:15:53.532Z,4.37
2017-08-07T09:18:22.415Z,2.08
2017-08-07T09:20:51.301Z,1.70
2017-08-07T09:23:20.186Z,2.37
2017-08-07T09:25:49.080Z,3.70
2017-08-07T09:28:17.992Z,1.65
2017-08-07T09:30:46.887Z,3.60
2017-08-07T09:33:15.767Z,1.98
2017-08-07T09:35:44.667Z,1.85
2017-08-07T09:38:13.542Z,1.80
2017-08-07T09:40:42.437Z,2.92
2017-08-07T09:43:11.317Z,5.22
2017-08-07T09:45:40.210Z,3.00
2017-08-07T09:48:09.077Z,2.10
2017-08-07T09:50:37.974Z,1.83
2017-08-07T09:53:06.852Z,3.30
2017-08-07T09:55:35.765Z,1.58
2017-08-07T09:58:04.632Z,2.10
2017-08-07T10:00:33.513Z,3.60
2017-08-07T10:03:02.377Z,2.42
2017-08-07T10:05:31.262Z,3.70
2017-08-07T10:08:00.145Z,1.87
2017-08-07T10:10:29.030Z,2.50
2017-08-07T10:12:57.915Z,2.58
2017-08-07T10:15:26.811Z,2.00
2017-08-07T10:17:55.697Z,2.80
2017-08-07T10:20:24.575Z,1.90
2017-08-07T10:22:53.464Z,1.90
2017-08-07T10:25:22.353Z,2.97
2017-08-07T10:27:51.251Z,2.20
2017-08-07T10:30:20.126Z,2.87
2017-08-07T10:32:49.028Z,7.20
2017-08-07T10:35:17.907Z,2.30
2017-08-07T10:37:46.824Z,1.50
2017-08-07T10:40:15.716Z,1.50
2017-08-07T10:42:44.605Z,2.10
2017-08-07T10:45:13.497Z,2.00
2017-08-07T10:47:42.385Z,1.63
2017-08-07T10:50:11.253Z,2.03
2017-08-07T10:52:40.160Z,2.25
2017-08-07T10:55:09.048Z,4.22
2017-08-07T10:57:37.958Z,2.10
2017-08-07T11:00:06.840Z,2.00
2017-08-07T11:02:35.729Z,2.17
2017-08-07T11:05:04.606Z,2.00
2017-08-07T11:07:33.493Z,1.70
2017-08-07T11:10:02.386Z,2.80
2017-08-07T11:12:31.282Z,2.17
2017-08-07T11:15:00.167Z,2.20
2017-08-07T11:17:29.056Z,2.60
2017-08-07T11:19:57.932Z,1.87
2017-08-07T11:22:26.838Z,1.75
2017-08-07T11:24:55.727Z,1.60
2017-08-07T11:27:24.613Z,1.67
2017-08-07T11:29:53.491Z,2.15
2017-08-07T11:34:57.725Z,1.80
2017-08-07T11:37:26.628Z,2.87
2017-08-07T11:39:55.508Z,2.80
2017-08-07T11:42:24.406Z,2.58
2017-08-07T11:44:53.366Z,2.20
2017-08-07T11:47:22.258Z,2.28
2017-08-07T11:49:51.155Z,3.93
2017-08-07T11:52:20.022Z,2.30
2017-08-07T11:54:48.922Z,2.53
2017-08-07T11:57:17.800Z,3.40
2017-08-07T11:59:46.686Z,3.67
2017-08-07T12:02:15.577Z,2.20
2017-08-07T12:04:44.466Z,1.83
2017-08-07T12:07:13.352Z,1.90
2017-08-07T12:09:42.246Z,1.70
2017-08-07T12:12:11.123Z,1.60
2017-08-07T12:14:40.028Z,3.03
2017-08-07T12:17:08.902Z,1.80
2017-08-07T12:19:37.790Z,2.10
2017-08-07T12:22:06.668Z,2.08
2017-08-07T12:24:35.554Z,2.30
2017-08-07T12:27:04.435Z,1.73
2017-08-07T12:29:33.322Z,1.65
2017-08-07T12:32:02.198Z,1.90
2017-08-07T12:34:31.085Z,1.62
2017-08-07T12:36:59.993Z,1.90
2017-08-07T12:39:28.876Z,1.95
2017-08-07T12:41:57.767Z,1.60
2017-08-07T12:44:26.655Z,1.58
2017-08-07T12:46:56.351Z,1.77
2017-08-07T12:49:25.235Z,2.30
2017-08-07T12:51:54.133Z,5.62
2017-08-07T12:54:23.080Z,2.95
2017-08-07T12:56:51.961Z,1.77
2017-08-07T12:59:20.840Z,2.33
2017-08-07T13:01:49.740Z,2.15
2017-08-07T13:04:18.609Z,1.60
2017-08-07T13:06:47.501Z,2.67
2017-08-07T13:09:16.375Z,1.80
2017-08-07T13:11:45.271Z,3.97
2017-08-07T13:14:14.156Z,1.73
2017-08-07T13:16:43.137Z,1.55
2017-08-07T13:21:47.331Z,1.98
2017-08-07T13:24:16.207Z,2.42
2017-08-07T13:26:45.095Z,3.20
2017-08-07T13:29:13.974Z,1.23
2017-08-07T13:31:42.846Z,1.65
2017-08-07T13:34:11.739Z,2.30
2017-08-07T13:36:40.610Z,1.43
2017-08-07T13:39:09.516Z,2.30
2017-08-07T13:41:38.395Z,3.00
2017-08-07T13:44:07.297Z,1.80
2017-08-07T13:46:36.166Z,3.40
2017-08-07T13:49:05.053Z,1.80
2017-08-07T13:51:33.917Z,2.83
2017-08-07T13:54:02.824Z,2.08
2017-08-07T13:56:31.693Z,1.80
2017-08-07T13:59:00.591Z,2.00
2017-08-07T14:01:29.478Z,2.93
2017-08-07T14:03:58.365Z,2.42
2017-08-07T14:06:27.265Z,1.83
2017-08-07T14:08:56.171Z,2.12
2017-08-07T14:11:25.056Z,1.67
2017-08-07T14:13:53.951Z,1.67
2017-08-07T14:16:22.931Z,2.05
2017-08-07T14:18:51.822Z,1.62
2017-08-07T14:21:20.698Z,1.90
2017-08-07T14:23:49.578Z,2.20
2017-08-07T14:26:18.471Z,2.17
2017-08-07T14:28:47.351Z,2.40
2017-08-07T14:31:16.241Z,2.13
2017-08-07T14:33:45.110Z,1.90
2017-08-07T14:36:14.016Z,2.43
2017-08-07T14:38:42.901Z,2.37
2017-08-07T14:41:11.803Z,2.00
2017-08-07T14:43:40.680Z,1.63
2017-08-07T14:46:09.578Z,2.20
2017-08-07T14:48:38.454Z,1.37
2017-08-07T14:51:07.363Z,3.10
2017-08-07T14:53:36.239Z,3.87
2017-08-07T14:56:05.126Z,1.67
2017-08-07T14:58:34.002Z,2.33
2017-08-07T15:01:02.899Z,1.70
2017-08-07T15:03:31.770Z,1.80
2017-08-07T15:06:00.664Z,2.37
2017-08-07T15:08:29.560Z,1.97
2017-08-07T15:10:58.446Z,1.93
2017-08-07T15:13:27.315Z,1.67
2017-08-07T15:15:56.199Z,1.30
2017-08-07T15:18:25.093Z,2.40
2017-08-07T15:20:53.961Z,1.70
2017-08-07T15:23:22.859Z,2.27
2017-08-07T15:25:51.735Z,2.67
2017-08-07T15:28:20.618Z,2.00
2017-08-07T15:30:49.504Z,1.67
2017-08-07T15:33:18.399Z,3.63
2017-08-07T15:35:47.270Z,2.43
2017-08-07T15:38:16.158Z,2.77
2017-08-07T15:40:45.049Z,1.80
2017-08-07T15:43:13.937Z,1.80
2017-08-07T15:45:42.806Z,1.60
2017-08-07T15:48:11.728Z,1.50
2017-08-07T15:50:40.616Z,2.00
2017-08-07T15:53:09.514Z,1.33
2017-08-07T15:55:38.396Z,2.83
2017-08-07T15:58:07.290Z,2.40
2017-08-07T16:00:36.169Z,1.97
2017-08-07T16:03:05.063Z,1.60
2017-08-07T16:05:33.934Z,1.40
2017-08-07T16:08:02.831Z,1.80
2017-08-07T16:10:31.706Z,2.30
2017-08-07T16:13:00.602Z,1.73
2017-08-07T16:15:29.481Z,1.57
2017-08-07T16:17:58.375Z,2.03
2017-08-07T16:20:27.240Z,2.33
2017-08-07T16:22:56.135Z,1.40
2017-08-07T16:25:25.009Z,1.50
2017-08-07T16:27:53.898Z,2.00
2017-08-07T16:30:28.671Z,4.00
2017-08-07T16:32:57.557Z,1.80
2017-08-07T16:35:26.430Z,1.60
2017-08-07T16:37:55.340Z,2.00
2017-08-07T16:40:24.284Z,2.30
2017-08-07T16:42:53.173Z,2.60
2017-08-07T16:45:22.072Z,1.60
2017-08-07T16:47:50.960Z,2.53
2017-08-07T16:50:19.851Z,2.80
2017-08-07T16:52:48.735Z,2.10
2017-08-07T16:55:17.653Z,2.30
2017-08-07T16:57:46.533Z,2.10
2017-08-07T17:00:15.440Z,1.70
2017-08-07T17:02:44.309Z,1.77
2017-08-07T17:05:13.205Z,2.50
2017-08-07T17:07:42.088Z,1.90
2017-08-07T17:10:10.969Z,2.07
2017-08-07T17:12:39.847Z,2.43
2017-08-07T17:15:08.742Z,1.70
2017-08-07T17:17:37.629Z,3.00
2017-08-07T17:20:06.525Z,2.20
2017-08-07T17:22:35.435Z,2.00
2017-08-07T17:25:04.305Z,1.77
2017-08-07T17:27:33.199Z,2.07
2017-08-07T17:30:02.085Z,3.23
2017-08-07T17:32:30.984Z,2.87
2017-08-07T17:34:59.868Z,3.10
2017-08-07T17:37:28.754Z,2.90
2017-08-07T17:39:57.622Z,3.00
2017-08-07T17:42:26.502Z,3.37
2017-08-07T17:44:55.374Z,2.20
2017-08-07T17:47:24.262Z,2.50
2017-08-07T17:49:53.137Z,2.00
2017-08-07T17:52:22.022Z,2.43
2017-08-07T17:54:50.903Z,2.10
2017-08-07T17:57:19.790Z,2.60
2017-08-07T17:59:48.684Z,2.10
2017-08-07T18:02:17.587Z,3.10
2017-08-07T18:04:46.467Z,1.70
2017-08-07T18:07:15.350Z,2.20
2017-08-07T18:09:44.233Z,2.03
2017-08-07T18:12:13.127Z,2.97
2017-08-07T18:14:41.989Z,3.17
2017-08-07T18:17:10.884Z,5.30
2017-08-07T18:19:39.747Z,3.70
2017-08-07T18:22:08.636Z,3.57
2017-08-07T18:24:37.520Z,2.60
2017-08-07T18:27:06.415Z,3.23
2017-08-07T18:29:35.291Z,2.70
2017-08-07T18:32:04.167Z,2.67
2017-08-07T18:34:33.054Z,1.93
2017-08-07T18:37:01.932Z,2.37
2017-08-07T18:39:30.827Z,5.13
2017-08-07T18:41:59.702Z,3.23
2017-08-07T18:44:28.595Z,3.60
2017-08-07T18:46:57.483Z,3.83
2017-08-07T18:49:26.383Z,5.53
2017-08-07T18:51:55.254Z,4.10
2017-08-07T18:54:24.135Z,4.50
2017-08-07T18:56:53.024Z,4.07
2017-08-07T18:59:21.905Z,6.33
2017-08-07T19:01:50.787Z,3.83
2017-08-07T19:04:19.670Z,5.57
2017-08-07T19:06:48.555Z,3.70
2017-08-07T19:09:17.452Z,4.30
2017-08-07T19:11:46.331Z,4.07
2017-08-07T19:14:15.230Z,4.13
2017-08-07T19:16:44.117Z,4.23
2017-08-07T19:19:13.005Z,3.70
2017-08-07T19:21:41.873Z,5.10
2017-08-07T19:24:10.778Z,4.20
2017-08-07T19:26:39.656Z,3.97
2017-08-07T19:29:08.541Z,3.50
2017-08-07T19:31:37.414Z,4.43
2017-08-07T19:34:06.319Z,5.13
2017-08-07T19:36:35.183Z,4.03
2017-08-07T19:39:04.070Z,5.10
2017-08-07T19:41:32.942Z,5.50
2017-08-07T19:44:01.844Z,5.00
2017-08-07T19:46:30.722Z,4.40
2017-08-07T19:48:59.606Z,4.80
2017-08-07T19:51:28.514Z,5.10
2017-08-07T19:53:57.395Z,4.57
2017-08-07T19:56:26.298Z,5.53
2017-08-07T19:58:55.188Z,7.43
2017-08-07T20:01:24.074Z,7.97
2017-08-07T20:03:52.945Z,6.67
2017-08-07T20:06:21.829Z,6.67
2017-08-07T20:08:50.715Z,10.83
2017-08-07T20:11:19.601Z,8.07
2017-08-07T20:13:48.472Z,5.57
2017-08-07T20:16:17.353Z,5.10
2017-08-07T20:18:46.235Z,10.43
2017-08-07T20:21:15.154Z,7.07
2017-08-07T20:23:45.088Z,6.20
2017-08-07T20:26:13.978Z,10.37
2017-08-07T20:28:42.847Z,6.73
2017-08-07T20:31:11.744Z,7.67
2017-08-07T20:33:40.609Z,6.70
2017-08-07T20:36:09.503Z,5.90
2017-08-07T20:38:38.375Z,12.20
2017-08-07T20:41:07.280Z,9.47
2017-08-07T20:43:36.141Z,6.67
2017-08-07T20:46:05.045Z,6.60
2017-08-07T20:48:33.937Z,11.00
2017-08-07T20:51:02.886Z,6.77
2017-08-07T20:53:31.752Z,6.47
2017-08-07T20:56:00.650Z,6.30
2017-08-07T20:58:29.547Z,4.87
2017-08-07T21:00:58.450Z,5.17
2017-08-07T21:03:27.323Z,4.43
2017-08-07T21:05:56.198Z,7.27
2017-08-07T21:08:25.103Z,4.60
2017-08-07T21:10:53.979Z,8.23
2017-08-07T21:13:22.955Z,4.40
2017-08-07T21:15:51.827Z,5.00
2017-08-07T21:18:20.705Z,6.40
2017-08-07T21:20:49.582Z,5.40
2017-08-07T21:23:18.469Z,4.97
2017-08-07T21:25:47.335Z,7.10
2017-08-07T21:28:16.244Z,5.87
2017-08-07T21:30:45.137Z,5.37
2017-08-07T21:33:14.039Z,4.13
2017-08-07T21:35:42.912Z,5.87
2017-08-07T21:38:11.815Z,4.60
2017-08-07T21:40:40.686Z,6.37
2017-08-07T21:43:09.588Z,4.93
2017-08-07T21:45:38.450Z,4.57
2017-08-07T21:48:07.348Z,4.87
2017-08-07T21:50:36.226Z,6.47
2017-08-07T21:53:05.119Z,5.20
2017-08-07T21:55:33.989Z,4.30
2017-08-07T21:58:02.932Z,4.27
2017-08-07T22:00:31.807Z,4.07
2017-08-07T22:03:00.715Z,4.60
2017-08-07T22:05:29.599Z,4.47
2017-08-07T22:07:58.486Z,4.60
2017-08-07T22:10:27.386Z,4.00
2017-08-07T22:12:56.290Z,4.80
2017-08-07T22:15:25.167Z,4.10
2017-08-07T22:17:54.057Z,4.73
2017-08-07T22:20:22.965Z,4.60
2017-08-07T22:22:51.863Z,5.00
2017-08-07T22:25:20.748Z,4.57
2017-08-07T22:27:49.612Z,5.57
2017-08-07T22:30:18.498Z,4.30
2017-08-07T22:32:47.384Z,4.17
2017-08-07T22:35:16.279Z,5.03
2017-08-07T22:37:45.152Z,5.47
2017-08-07T22:40:14.051Z,6.97
2017-08-07T22:42:42.956Z,6.10
2017-08-07T22:45:11.851Z,6.37
2017-08-07T22:47:40.733Z,4.40
2017-08-07T22:50:09.644Z,4.63
2017-08-07T22:52:38.521Z,4.60
2017-08-07T22:55:07.415Z,4.90
2017-08-07T22:57:36.285Z,4.90
2017-08-07T23:00:05.180Z,6.13
2017-08-07T23:02:34.052Z,4.60
2017-08-07T23:05:02.943Z,5.27
2017-08-07T23:07:31.824Z,5.93
2017-08-07T23:10:01.892Z,4.00
2017-08-07T23:12:30.787Z,4.87
2017-08-07T23:14:59.667Z,4.67
2017-08-07T23:17:28.566Z,4.60
2017-08-07T23:19:57.433Z,5.13
2017-08-07T23:22:26.332Z,8.87
2017-08-07T23:24:55.215Z,5.00
2017-08-07T23:27:24.104Z,4.47
2017-08-07T23:29:52.984Z,5.67
2017-08-07T23:32:21.888Z,5.37
2017-08-07T23:34:50.766Z,4.63
2017-08-07T23:37:19.659Z,4.20
2017-08-07T23:39:48.549Z,4.90
2017-08-07T23:42:17.444Z,4.63
2017-08-07T23:44:46.324Z,5.23
2017-08-07T23:47:15.227Z,5.87
2017-08-07T23:49:44.114Z,4.70
2017-08-07T23:52:12.982Z,4.83
2017-08-07T23:54:41.876Z,7.47
2017-08-07T23:57:10.752Z,7.20
2017-08-07T23:59:39.650Z,4.43
